createdAt,value
2023-03-08T00:00:54.692Z,99818.28
2023-03-08T00:03:24.479Z,99823.50
2023-03-08T00:05:54.360Z,99813.03
2023-03-08T00:08:24.497Z,99821.78
2023-03-08T00:10:54.280Z,99827.72
2023-03-08T00:13:24.211Z,99828.47
2023-03-08T00:16:05.109Z,99828.47
2023-03-08T00:18:35.483Z,99829.16
2023-03-08T00:21:07.292Z,99829.81
2023-03-08T00:23:37.180Z,99836.63
2023-03-08T00:26:11.280Z,99833.13
2023-03-08T00:28:41.720Z,99821.78
2023-03-08T00:31:16.194Z,99829.66
2023-03-08T00:33:46.001Z,99838.25
2023-03-08T00:36:18.311Z,99837.34
2023-03-08T00:38:51.243Z,99847.59
2023-03-08T00:41:21.576Z,99846.56
2023-03-08T00:43:52.037Z,99848.03
2023-03-08T00:46:24.491Z,99844.16
2023-03-08T00:48:54.452Z,99835.09
2023-03-08T00:51:24.592Z,99827.97
2023-03-08T00:53:54.430Z,99831.41
2023-03-08T00:56:24.601Z,99829.91
2023-03-08T00:58:54.368Z,99824.88
2023-03-08T01:01:26.750Z,99825.84
2023-03-08T01:03:56.617Z,99816.44
2023-03-08T01:06:26.570Z,99824.38
2023-03-08T01:08:56.483Z,99819.31
2023-03-08T01:11:28.160Z,99822.88
2023-03-08T01:13:58.110Z,99824.75
2023-03-08T01:16:33.085Z,99822.25
2023-03-08T01:19:03.783Z,99829.19
2023-03-08T01:21:34.728Z,99828.41
2023-03-08T01:24:04.490Z,99830.03
2023-03-08T01:26:34.281Z,99819.56
2023-03-08T01:29:04.839Z,99822.06
2023-03-08T01:31:37.192Z,99821.25
2023-03-08T01:34:07.108Z,99824.59
2023-03-08T01:36:36.910Z,99819.31
2023-03-08T01:39:06.841Z,99811.53
2023-03-08T01:41:36.756Z,99817.78
2023-03-08T01:44:06.784Z,99817.78
2023-03-08T01:46:39.526Z,99809.09
2023-03-08T01:49:14.987Z,99798.69
2023-03-08T01:51:48.636Z,99797.91
2023-03-08T01:54:22.132Z,99793.50
2023-03-08T01:56:53.657Z,99795.31
2023-03-08T01:59:25.911Z,99788.25
2023-03-08T02:01:58.324Z,99790.72
2023-03-08T02:04:28.580Z,99795.81
2023-03-08T02:06:58.394Z,99787.94
2023-03-08T02:09:28.433Z,99787.91
2023-03-08T02:12:02.314Z,99782.56
2023-03-08T02:14:32.514Z,99783.34
2023-03-08T02:17:14.635Z,99791.09
2023-03-08T02:19:51.498Z,99787.38
2023-03-08T02:22:22.808Z,99780.97
2023-03-08T02:24:55.162Z,99780.66
2023-03-08T02:27:28.981Z,99781.41
2023-03-08T02:29:58.753Z,99782.88
2023-03-08T02:32:28.722Z,99787.19
2023-03-08T02:34:58.485Z,99785.31
2023-03-08T02:37:29.054Z,99781.84
2023-03-08T02:40:01.441Z,99788.00
2023-03-08T02:42:31.186Z,99773.22
2023-03-08T02:45:01.006Z,99779.16
2023-03-08T02:47:30.911Z,99780.13
2023-03-08T02:50:00.757Z,99778.41
2023-03-08T02:52:30.522Z,99776.66
2023-03-08T02:55:02.942Z,99780.06
2023-03-08T02:57:32.753Z,99773.91
2023-03-08T03:00:03.364Z,99767.66
2023-03-08T03:02:34.975Z,99771.19
2023-03-08T03:05:06.251Z,99777.31
2023-03-08T03:07:38.930Z,99781.59
2023-03-08T03:10:16.058Z,99790.28
2023-03-08T03:12:46.731Z,99788.41
2023-03-08T03:15:17.401Z,99785.81
2023-03-08T03:17:47.198Z,99791.00
2023-03-08T03:20:18.531Z,99790.13
2023-03-08T03:22:48.367Z,99786.75
2023-03-08T03:25:21.406Z,99779.91
2023-03-08T03:27:51.148Z,99779.91
2023-03-08T03:30:20.951Z,99777.53
2023-03-08T03:32:50.826Z,99781.09
2023-03-08T03:35:20.809Z,99778.59
2023-03-08T03:37:50.572Z,99776.94
2023-03-08T03:40:24.184Z,99783.09
2023-03-08T03:42:53.943Z,99767.63
2023-03-08T03:45:23.782Z,99766.97
2023-03-08T03:47:53.839Z,99773.19
2023-03-08T03:50:23.595Z,99769.94
2023-03-08T03:52:53.380Z,99764.03
2023-03-08T03:55:25.784Z,99767.66
2023-03-08T03:57:56.503Z,99770.38
2023-03-08T04:00:27.808Z,99773.06
2023-03-08T04:02:57.628Z,99777.38
2023-03-08T04:05:27.450Z,99769.59
2023-03-08T04:07:57.242Z,99773.81
2023-03-08T04:10:29.607Z,99784.03
2023-03-08T04:12:59.356Z,99779.41
2023-03-08T04:15:31.388Z,99780.84
2023-03-08T04:18:01.196Z,99769.25
2023-03-08T04:20:30.950Z,99775.19
2023-03-08T04:23:00.792Z,99771.63
2023-03-08T04:25:33.144Z,99764.66
2023-03-08T04:28:03.715Z,99765.44
2023-03-08T04:30:33.536Z,99768.00
2023-03-08T04:33:03.322Z,99762.66
2023-03-08T04:35:33.144Z,99759.75
2023-03-08T04:38:02.941Z,99756.03
2023-03-08T04:40:55.681Z,99755.06
2023-03-08T04:43:25.436Z,99761.88
2023-03-08T04:45:55.258Z,99760.19
2023-03-08T04:48:26.523Z,99755.00
2023-03-08T04:50:59.657Z,99747.28
2023-03-08T04:53:30.578Z,99755.16
2023-03-08T04:56:03.075Z,99756.91
2023-03-08T04:58:33.986Z,99746.53
2023-03-08T05:01:03.791Z,99744.78
2023-03-08T05:03:33.606Z,99743.94
2023-03-08T05:06:03.405Z,99737.00
2023-03-08T05:08:33.164Z,99733.50
2023-03-08T05:11:08.490Z,99739.69
2023-03-08T05:13:40.221Z,99739.59
2023-03-08T05:16:11.390Z,99737.00
2023-03-08T05:18:41.482Z,99732.63
2023-03-08T05:21:15.675Z,99735.22
2023-03-08T05:23:45.660Z,99732.63
2023-03-08T05:26:19.858Z,99716.97
2023-03-08T05:28:49.650Z,99724.75
2023-03-08T05:31:21.390Z,99717.88
2023-03-08T05:33:53.851Z,99717.06
2023-03-08T05:36:23.777Z,99722.31
2023-03-08T05:38:56.582Z,99716.25
2023-03-08T05:41:29.032Z,99718.94
2023-03-08T05:43:58.791Z,99713.66
2023-03-08T05:46:31.192Z,99712.44
2023-03-08T05:49:01.381Z,99720.56
2023-03-08T05:51:32.767Z,99713.25
2023-03-08T05:54:02.638Z,99722.16
2023-03-08T05:56:34.985Z,99720.97
2023-03-08T05:59:04.956Z,99713.09
2023-03-08T06:01:34.883Z,99698.53
2023-03-08T06:04:05.330Z,99699.56
2023-03-08T06:06:35.226Z,99699.81
2023-03-08T06:09:04.995Z,99704.34
2023-03-08T06:11:37.472Z,99704.50
2023-03-08T06:14:07.285Z,99697.84
2023-03-08T06:16:37.122Z,99700.56
2023-03-08T06:19:09.372Z,99708.59
2023-03-08T06:21:39.943Z,99715.84
2023-03-08T06:24:09.938Z,99702.34
2023-03-08T06:26:42.408Z,99697.84
2023-03-08T06:29:12.155Z,99695.25
2023-03-08T06:31:41.989Z,99684.09
2023-03-08T06:34:11.777Z,99673.88
2023-03-08T06:36:41.627Z,99676.72
2023-03-08T06:39:11.523Z,99681.16
2023-03-08T06:41:44.086Z,99662.38
2023-03-08T06:44:13.893Z,99671.28
2023-03-08T06:46:43.928Z,99672.38
2023-03-08T06:49:13.717Z,99670.97
2023-03-08T06:51:43.504Z,99671.19
2023-03-08T06:54:18.233Z,99665.41
2023-03-08T06:56:51.023Z,99656.97
2023-03-08T06:59:20.835Z,99659.72
2023-03-08T07:01:50.658Z,99657.34
2023-03-08T07:04:21.159Z,99648.75
2023-03-08T07:06:51.148Z,99651.56
2023-03-08T07:09:20.946Z,99650.03
2023-03-08T07:11:53.461Z,99651.13
2023-03-08T07:14:24.813Z,99644.34
2023-03-08T07:16:56.959Z,99646.34
2023-03-08T07:19:26.765Z,99648.28
2023-03-08T07:21:56.601Z,99646.78
2023-03-08T07:24:32.398Z,99649.53
2023-03-08T07:27:04.765Z,99647.06
2023-03-08T07:29:34.647Z,99647.22
2023-03-08T07:32:05.428Z,99647.38
2023-03-08T07:34:35.263Z,99645.03
2023-03-08T07:37:04.995Z,99647.81
2023-03-08T07:39:34.814Z,99636.81
2023-03-08T07:42:07.810Z,99637.06
2023-03-08T07:44:37.598Z,99639.97
2023-03-08T07:47:08.432Z,99634.06
2023-03-08T07:49:38.448Z,99636.88
2023-03-08T07:52:08.921Z,99646.63
2023-03-08T07:54:40.974Z,99653.75
2023-03-08T07:57:15.402Z,99645.22
2023-03-08T07:59:45.616Z,99647.81
2023-03-08T08:02:15.787Z,99654.00
2023-03-08T08:04:45.755Z,99656.81
2023-03-08T08:07:17.299Z,99649.91
2023-03-08T08:09:47.107Z,99651.69
2023-03-08T08:12:19.573Z,99658.63
2023-03-08T08:14:53.212Z,99650.88
2023-03-08T08:17:29.757Z,99657.09
2023-03-08T08:19:59.733Z,99657.22
2023-03-08T08:22:29.476Z,99662.63
2023-03-08T08:24:59.257Z,99662.00
2023-03-08T08:27:31.660Z,99660.41
2023-03-08T08:30:01.897Z,99658.84
2023-03-08T08:32:31.981Z,99659.06
2023-03-08T08:35:01.779Z,99650.44
2023-03-08T08:37:35.675Z,99655.88
2023-03-08T08:40:08.137Z,99657.78
2023-03-08T08:42:41.017Z,99650.28
2023-03-08T08:45:12.022Z,99649.69
2023-03-08T08:47:43.323Z,99654.28
2023-03-08T08:50:14.420Z,99651.91
2023-03-08T08:52:44.212Z,99651.22
2023-03-08T08:55:14.082Z,99653.09
2023-03-08T08:57:46.443Z,99642.91
2023-03-08T09:00:18.066Z,99645.81
2023-03-08T09:02:47.858Z,99640.88
2023-03-08T09:05:17.757Z,99642.81
2023-03-08T09:07:49.791Z,99642.19
2023-03-08T09:10:20.130Z,99635.31
2023-03-08T09:12:52.544Z,99628.50
2023-03-08T09:15:24.598Z,99627.75
2023-03-08T09:17:54.371Z,99625.41
2023-03-08T09:20:24.769Z,99623.88
2023-03-08T09:22:54.879Z,99618.88
2023-03-08T09:25:25.081Z,99614.72
2023-03-08T09:28:02.020Z,99619.31
2023-03-08T09:30:33.076Z,99616.03
2023-03-08T09:33:04.220Z,99622.25
2023-03-08T09:35:34.025Z,99612.84
2023-03-08T09:38:06.182Z,99613.84
2023-03-08T09:40:42.174Z,99611.41
2023-03-08T09:43:26.108Z,99601.97
2023-03-08T09:45:57.711Z,99598.59
2023-03-08T09:48:32.465Z,99604.84
2023-03-08T09:51:06.800Z,99603.31
2023-03-08T09:53:42.257Z,99608.69
2023-03-08T09:56:24.598Z,99602.88
2023-03-08T09:59:01.241Z,99609.19
2023-03-08T10:01:41.852Z,99607.66
2023-03-08T10:04:22.416Z,99599.09
2023-03-08T10:07:05.962Z,99597.53
2023-03-08T10:09:40.274Z,99600.25
2023-03-08T10:12:19.885Z,99593.31
2023-03-08T10:14:57.674Z,99596.88
2023-03-08T10:17:36.612Z,99589.09
2023-03-08T10:20:11.052Z,99584.81
2023-03-08T10:22:42.951Z,99593.59
2023-03-08T10:25:28.038Z,99581.50
2023-03-08T10:27:59.599Z,99582.53
2023-03-08T10:30:36.401Z,99579.16
2023-03-08T10:33:11.794Z,99572.28
2023-03-08T10:35:56.210Z,99562.88
2023-03-08T10:38:28.962Z,99563.84
2023-03-08T10:41:07.252Z,99562.28
2023-03-08T10:43:44.631Z,99554.59
2023-03-08T10:46:21.314Z,99562.69
2023-03-08T10:48:51.731Z,99559.31
2023-03-08T10:51:23.484Z,99562.94
2023-03-08T10:53:57.357Z,99564.84
2023-03-08T10:56:31.099Z,99561.47
2023-03-08T10:59:02.107Z,99558.06
2023-03-08T11:01:37.444Z,99564.28
2023-03-08T11:04:09.117Z,99561.72
2023-03-08T11:06:38.876Z,99563.38
2023-03-08T11:09:23.430Z,99557.25
2023-03-08T11:11:53.339Z,99552.72
2023-03-08T11:14:24.421Z,99548.25
2023-03-08T11:17:18.560Z,99547.13
2023-03-08T11:20:02.275Z,99540.56
2023-03-08T11:22:42.527Z,99547.34
2023-03-08T11:25:21.401Z,99545.69
2023-03-08T11:29:18.810Z,99541.72
2023-03-08T11:31:58.062Z,99542.63
2023-03-08T11:34:48.995Z,99545.38
2023-03-08T11:37:27.543Z,99537.63
2023-03-08T11:40:08.788Z,99539.22
2023-03-08T11:42:52.768Z,99531.31
2023-03-08T11:45:30.860Z,99543.47
2023-03-08T11:48:22.334Z,99535.81
2023-03-08T11:50:56.404Z,99533.22
2023-03-08T11:53:37.466Z,99527.50
2023-03-08T11:56:45.594Z,99539.25
2023-03-08T11:59:25.162Z,99544.84
2023-03-08T12:02:04.623Z,99538.03
2023-03-08T12:04:41.117Z,99533.81
2023-03-08T12:07:21.784Z,99537.53
2023-03-08T12:09:59.771Z,99531.69
2023-03-08T12:12:34.093Z,99529.16
2023-03-08T12:15:11.122Z,99536.38
2023-03-08T12:17:51.520Z,99537.91
2023-03-08T12:20:23.687Z,99532.91
2023-03-08T12:22:59.709Z,99538.53
2023-03-08T12:25:32.301Z,99530.69
2023-03-08T12:28:12.728Z,99536.28
2023-03-08T12:31:04.795Z,99531.75
2023-03-08T12:33:38.745Z,99528.91
2023-03-08T12:36:11.317Z,99531.47
2023-03-08T12:38:45.661Z,99514.88
2023-03-08T12:41:28.012Z,99515.69
2023-03-08T12:44:06.976Z,99525.41
2023-03-08T12:47:02.264Z,99510.78
2023-03-08T12:49:39.172Z,99509.81
2023-03-08T12:52:26.005Z,99511.34
2023-03-08T12:55:00.859Z,99507.75
2023-03-08T12:57:33.354Z,99509.38
2023-03-08T13:00:10.857Z,99512.84
2023-03-08T13:02:40.650Z,99510.78
2023-03-08T13:05:31.663Z,99517.47
2023-03-08T13:08:28.962Z,99517.31
2023-03-08T13:11:12.020Z,99510.25
2023-03-08T13:13:48.173Z,99504.97
2023-03-08T13:16:26.743Z,99504.00
2023-03-08T13:19:05.988Z,99500.38
2023-03-08T13:21:42.981Z,99498.44
2023-03-08T13:24:19.349Z,99507.16
2023-03-08T13:27:16.055Z,99504.56
2023-03-08T13:29:47.651Z,99504.56
2023-03-08T13:32:21.213Z,99499.19
2023-03-08T13:35:01.814Z,99501.72
2023-03-08T13:37:34.392Z,99496.44
2023-03-08T13:40:07.942Z,99498.09
2023-03-08T13:42:37.704Z,99495.47
2023-03-08T13:45:12.592Z,99493.75
2023-03-08T13:47:42.463Z,99503.31
2023-03-08T13:50:22.129Z,99499.88
2023-03-08T13:52:54.748Z,99506.78
2023-03-08T13:55:31.066Z,99505.75
2023-03-08T13:58:01.336Z,99505.75
2023-03-08T14:00:37.694Z,99507.63
2023-03-08T14:03:09.292Z,99504.19
2023-03-08T14:05:45.867Z,99505.81
2023-03-08T14:08:25.997Z,99500.53
2023-03-08T14:10:59.526Z,99498.00
2023-03-08T14:13:32.540Z,99503.16
2023-03-08T14:16:04.650Z,99489.13
2023-03-08T14:18:37.547Z,99495.13
2023-03-08T14:21:17.634Z,99493.25
2023-03-08T14:23:53.824Z,99487.25
2023-03-08T14:26:37.616Z,99490.03
2023-03-08T14:29:16.323Z,99490.03
2023-03-08T14:32:00.810Z,99486.53
2023-03-08T14:34:34.084Z,99488.97
2023-03-08T14:37:06.666Z,99489.13
2023-03-08T14:39:40.529Z,99482.44
2023-03-08T14:42:22.276Z,99486.25
2023-03-08T14:44:57.839Z,99485.38
2023-03-08T14:47:29.752Z,99486.97
2023-03-08T14:50:03.861Z,99478.25
2023-03-08T14:52:36.950Z,99482.53
2023-03-08T14:55:23.314Z,99471.13
2023-03-08T14:57:57.914Z,99469.25
2023-03-08T15:00:30.463Z,99464.66
2023-03-08T15:03:01.107Z,99456.63
2023-03-08T15:05:32.512Z,99458.25
2023-03-08T15:08:03.068Z,99458.25
2023-03-08T15:10:38.752Z,99459.97
2023-03-08T15:13:13.268Z,99454.69
2023-03-08T15:15:43.208Z,99445.13
2023-03-08T15:18:13.213Z,99447.66
2023-03-08T15:20:46.647Z,99448.50
2023-03-08T15:23:21.842Z,99451.06
2023-03-08T15:25:54.208Z,99442.19
2023-03-08T15:28:27.250Z,99455.22
2023-03-08T15:30:57.545Z,99444.81
2023-03-08T15:33:28.340Z,99443.06
2023-03-08T15:35:58.309Z,99450.84
2023-03-08T15:38:28.074Z,99453.47
2023-03-08T15:41:00.451Z,99455.19
2023-03-08T15:43:31.740Z,99455.91
2023-03-08T15:46:01.518Z,99462.84
2023-03-08T15:48:31.335Z,99458.59
2023-03-08T15:51:02.315Z,99453.38
2023-03-08T15:53:35.743Z,99455.91
2023-03-08T15:56:13.008Z,99444.53
2023-03-08T15:58:42.906Z,99447.94
2023-03-08T16:01:12.687Z,99446.19
2023-03-08T16:03:43.225Z,99440.97
2023-03-08T16:06:13.601Z,99440.97
2023-03-08T16:08:44.332Z,99437.34
2023-03-08T16:11:18.488Z,99439.94
2023-03-08T16:13:48.317Z,99446.78
2023-03-08T16:16:18.425Z,99451.13
2023-03-08T16:18:49.079Z,99451.91
2023-03-08T16:21:19.162Z,99451.78
2023-03-08T16:23:48.985Z,99460.50
2023-03-08T16:26:22.022Z,99458.00
2023-03-08T16:28:51.931Z,99454.69
2023-03-08T16:31:23.856Z,99454.72
2023-03-08T16:33:53.726Z,99464.19
2023-03-08T16:36:23.514Z,99450.19
2023-03-08T16:38:55.012Z,99456.28
2023-03-08T16:41:32.721Z,99458.78
2023-03-08T16:44:02.539Z,99451.69
2023-03-08T16:46:34.748Z,99455.13
2023-03-08T16:49:04.495Z,99452.53
2023-03-08T16:51:37.408Z,99454.28
2023-03-08T16:54:08.713Z,99449.06
2023-03-08T16:56:42.063Z,99450.81
2023-03-08T16:59:15.604Z,99446.38
2023-03-08T17:01:47.502Z,99449.69
2023-03-08T17:04:17.320Z,99442.72
2023-03-08T17:06:48.010Z,99442.63
2023-03-08T17:09:17.891Z,99440.81
2023-03-08T17:11:50.325Z,99440.63
2023-03-08T17:14:20.084Z,99439.66
2023-03-08T17:16:49.856Z,99433.53
2023-03-08T17:19:19.710Z,99434.31
2023-03-08T17:21:51.973Z,99434.28
2023-03-08T17:24:21.915Z,99428.94
2023-03-08T17:26:54.876Z,99433.22
2023-03-08T17:29:24.994Z,99424.38
2023-03-08T17:31:55.143Z,99426.03
2023-03-08T17:34:25.319Z,99431.16
2023-03-08T17:36:55.107Z,99428.47
2023-03-08T17:39:26.800Z,99430.03
2023-03-08T17:41:59.200Z,99431.69
2023-03-08T17:44:28.952Z,99433.34
2023-03-08T17:46:58.691Z,99427.94
2023-03-08T17:49:28.552Z,99429.56
2023-03-08T17:51:58.301Z,99433.91
2023-03-08T17:54:31.124Z,99439.09
2023-03-08T17:57:03.528Z,99432.00
2023-03-08T17:59:33.388Z,99438.84
2023-03-08T18:02:03.731Z,99428.25
2023-03-08T18:04:35.195Z,99429.88
2023-03-08T18:07:06.117Z,99432.38
2023-03-08T18:09:35.901Z,99438.28
2023-03-08T18:12:09.291Z,99437.47
2023-03-08T18:14:40.177Z,99432.28
2023-03-08T18:17:10.796Z,99435.66
2023-03-08T18:19:41.694Z,99439.97
2023-03-08T18:22:11.660Z,99445.19
2023-03-08T18:24:41.796Z,99438.06
2023-03-08T18:27:17.367Z,99438.88
2023-03-08T18:29:47.192Z,99440.59
2023-03-08T18:32:16.970Z,99437.38
2023-03-08T18:34:47.971Z,99436.63
2023-03-08T18:37:18.083Z,99428.94
2023-03-08T18:39:48.647Z,99435.09
2023-03-08T18:42:21.008Z,99444.78
2023-03-08T18:44:51.263Z,99444.91
2023-03-08T18:47:21.430Z,99444.06
2023-03-08T18:49:51.276Z,99443.28
2023-03-08T18:52:21.811Z,99440.66
2023-03-08T18:54:51.589Z,99444.91
2023-03-08T18:57:23.949Z,99443.94
2023-03-08T18:59:53.872Z,99439.50
2023-03-08T19:02:28.457Z,99441.94
2023-03-08T19:04:58.431Z,99440.38
2023-03-08T19:07:28.249Z,99434.31
2023-03-08T19:10:00.005Z,99422.19
2023-03-08T19:12:33.910Z,99429.19
2023-03-08T19:15:03.799Z,99436.91
2023-03-08T19:17:33.621Z,99437.75
2023-03-08T19:20:05.147Z,99438.66
2023-03-08T19:22:34.973Z,99438.72
2023-03-08T19:25:06.201Z,99439.59
2023-03-08T19:27:39.235Z,99440.53
2023-03-08T19:30:10.729Z,99431.78
2023-03-08T19:32:42.697Z,99433.63
2023-03-08T19:35:13.255Z,99434.38
2023-03-08T19:37:46.739Z,99428.31
2023-03-08T19:40:17.527Z,99431.69
2023-03-08T19:42:50.233Z,99423.81
2023-03-08T19:45:20.799Z,99424.66
2023-03-08T19:47:50.611Z,99417.72
2023-03-08T19:50:51.184Z,99423.69
2023-03-08T19:53:20.975Z,99416.59
2023-03-08T19:55:55.059Z,99423.44
2023-03-08T19:58:27.624Z,99418.03
2023-03-08T20:01:05.468Z,99417.94
2023-03-08T20:03:35.497Z,99411.66
2023-03-08T20:06:05.845Z,99408.06
2023-03-08T20:08:37.119Z,99405.34
2023-03-08T20:11:07.274Z,99406.19
2023-03-08T20:13:40.130Z,99412.09
2023-03-08T20:16:10.639Z,99404.97
2023-03-08T20:18:40.598Z,99402.34
2023-03-08T20:21:10.569Z,99396.19
2023-03-08T20:23:40.486Z,99405.56
2023-03-08T20:26:10.793Z,99409.78
2023-03-08T20:28:46.325Z,99415.66
2023-03-08T20:31:19.571Z,99425.94
2023-03-08T20:33:49.388Z,99431.09
2023-03-08T20:36:19.407Z,99436.31
2023-03-08T20:38:49.249Z,99436.31
2023-03-08T20:41:23.075Z,99437.00
2023-03-08T20:43:57.505Z,99433.44
2023-03-08T20:46:31.265Z,99422.09
2023-03-08T20:49:01.318Z,99421.19
2023-03-08T20:51:33.461Z,99434.16
2023-03-08T20:54:03.731Z,99430.63
2023-03-08T20:56:33.532Z,99428.97
2023-03-08T20:59:06.057Z,99421.97
2023-03-08T21:01:37.144Z,99426.22
2023-03-08T21:04:10.050Z,99435.63
2023-03-08T21:06:39.868Z,99434.66
2023-03-08T21:09:09.639Z,99443.31
2023-03-08T21:11:39.392Z,99450.13
2023-03-08T21:14:13.306Z,99444.09
2023-03-08T21:16:43.481Z,99442.38
2023-03-08T21:19:13.497Z,99431.06
2023-03-08T21:21:45.460Z,99441.47
2023-03-08T21:24:16.929Z,99431.88
2023-03-08T21:26:47.666Z,99437.06
2023-03-08T21:29:25.326Z,99430.13
2023-03-08T21:31:55.867Z,99431.75
2023-03-08T21:34:25.836Z,99435.19
2023-03-08T21:36:55.752Z,99428.28
2023-03-08T21:39:26.697Z,99426.56
2023-03-08T21:41:58.593Z,99427.34
2023-03-08T21:44:32.156Z,99429.84
2023-03-08T21:47:02.005Z,99424.66
2023-03-08T21:49:38.194Z,99421.13
2023-03-08T21:52:11.147Z,99424.53
2023-03-08T21:54:41.084Z,99432.28
2023-03-08T21:57:10.823Z,99439.16
2023-03-08T21:59:44.061Z,99432.97
2023-03-08T22:02:14.047Z,99427.72
2023-03-08T22:04:44.025Z,99425.06
2023-03-08T22:07:13.911Z,99424.94
2023-03-08T22:09:43.679Z,99415.31
2023-03-08T22:12:15.022Z,99414.41
2023-03-08T22:14:47.430Z,99409.28
2023-03-08T22:17:17.205Z,99404.94
2023-03-08T22:19:46.951Z,99410.13
2023-03-08T22:22:17.105Z,99407.47
2023-03-08T22:24:46.960Z,99402.19
2023-03-08T22:27:18.310Z,99392.63
2023-03-08T22:29:51.704Z,99396.19
2023-03-08T22:32:21.535Z,99387.53
2023-03-08T22:34:51.385Z,99394.47
2023-03-08T22:37:21.245Z,99396.19
2023-03-08T22:39:51.008Z,99391.00
2023-03-08T22:42:20.767Z,99392.72
2023-03-08T22:44:53.120Z,99397.72
2023-03-08T22:47:22.889Z,99405.50
2023-03-08T22:49:53.598Z,99406.31
2023-03-08T22:52:23.478Z,99407.16
2023-03-08T22:54:53.231Z,99420.13
2023-03-08T22:57:22.999Z,99418.34
2023-03-08T22:59:57.931Z,99411.47
2023-03-08T23:02:30.782Z,99408.84
2023-03-08T23:05:02.380Z,99406.31
2023-03-08T23:07:32.132Z,99417.53
2023-03-08T23:10:01.955Z,99420.13
2023-03-08T23:12:31.792Z,99417.44
2023-03-08T23:15:04.610Z,99419.09
2023-03-08T23:17:34.563Z,99419.09
2023-03-08T23:20:05.766Z,99419.16
2023-03-08T23:22:35.588Z,99419.16
2023-03-08T23:25:05.632Z,99425.31
2023-03-08T23:27:36.030Z,99417.44
2023-03-08T23:30:12.156Z,99413.13
2023-03-08T23:32:42.753Z,99408.72
2023-03-08T23:35:13.849Z,99410.44
2023-03-08T23:37:43.844Z,99403.50
2023-03-08T23:40:15.821Z,99412.25
2023-03-08T23:42:45.767Z,99411.31
2023-03-08T23:45:18.191Z,99409.63
2023-03-08T23:47:52.481Z,99411.31
2023-03-08T23:50:22.335Z,99413.91
2023-03-08T23:52:52.164Z,99419.09
2023-03-08T23:55:22.075Z,99413.84
2023-03-08T23:57:51.836Z,99411.25
